Time;durP1;ratioP1;P1;durP2;ratioP2;P2;SDS_P1;SDS_P2;PMS_P1;PMS_P2;Temp;Humidity;BMP_temperature;BMP_pressure;BME280_temperature;BME280_humidity;BME280_pressure;Samples;Min_cycle;Max_cycle;Signal;HPM_P1;HPM_P2
2021/08/21 00:00:42;;;;;;;5.37;3.30;;;;;;;25.48;58.75;98207.94;5033834;28;20210;-74
2021/08/21 00:03:13;;;;;;;5.27;2.83;;;;;;;25.51;58.70;98204.63;5021627;28;20194;-74
2021/08/21 00:05:45;;;;;;;4.50;3.10;;;;;;;25.58;58.60;98204.28;5025297;28;20702;-74
2021/08/21 00:08:23;;;;;;;5.50;2.63;;;;;;;25.85;56.97;98215.41;5032973;28;20230;-73
2021/08/21 00:10:54;;;;;;;5.07;2.97;;;;;;;25.51;58.77;98204.63;5021050;28;20206;-74
2021/08/21 00:13:23;;;;;;;3.67;2.90;;;;;;;25.58;58.60;98204.28;5032452;28;20300;-74
2021/08/21 00:15:55;;;;;;;4.80;3.00;;;;;;;25.84;57.21;98203.66;5024263;28;20206;-74
2021/08/21 00:18:35;;;;;;;3.63;2.77;;;;;;;25.75;57.33;98210.06;5020779;28;20225;-74
2021/08/21 00:21:09;;;;;;;4.30;2.97;;;;;;;25.68;58.14;98210.41;5017339;28;20202;-75
2021/08/21 00:23:39;;;;;;;5.30;3.17;;;;;;;26.09;56.08;98203.31;5030012;28;20201;-74
2021/08/21 00:26:07;;;;;;;3.93;2.90;;;;;;;26.16;55.81;98201.06;5023340;28;20263;-74
2021/08/21 00:28:39;;;;;;;4.03;3.40;;;;;;;25.78;57.78;98209.47;5022131;28;20219;-74
2021/08/21 00:31:27;;;;;;;4.63;3.63;;;;;;;25.82;57.78;98199.56;5023941;28;20197;-74
2021/08/21 00:36:53;;;;;;;4.60;3.00;;;;;;;25.36;59.41;98191.16;5025252;28;20728;-75
2021/08/21 00:39:21;;;;;;;3.47;2.83;;;;;;;25.53;58.57;98199.66;5024612;28;20657;-75
2021/08/21 00:41:48;;;;;;;4.97;3.37;;;;;;;25.79;57.72;98187.31;5021431;28;20218;-76
2021/08/21 00:44:16;;;;;;;5.20;3.23;;;;;;;25.52;59.05;98192.59;5025425;28;20201;-75
2021/08/21 00:47:00;;;;;;;4.60;3.23;;;;;;;25.57;58.91;98195.25;5025479;28;20221;-75
2021/08/21 00:49:28;;;;;;;4.27;3.10;;;;;;;25.82;57.99;98189.47;5018622;28;20206;-75
2021/08/21 00:51:56;;;;;;;7.50;3.60;;;;;;;25.69;59.32;98194.84;5022944;28;20215;-75
2021/08/21 00:54:23;;;;;;;5.00;3.20;;;;;;;25.50;60.21;98189.34;5024433;28;20214;-74
2021/08/21 00:56:53;;;;;;;4.77;3.30;;;;;;;25.70;59.20;98193.72;5023779;28;20225;-75
2021/08/21 00:59:20;;;;;;;7.00;3.43;;;;;;;25.87;58.41;98189.41;5031843;28;20204;-75
2021/08/21 01:01:48;;;;;;;7.10;3.47;;;;;;;25.71;58.84;98184.41;5019398;28;20236;-75
2021/08/21 01:04:17;;;;;;;5.30;3.30;;;;;;;25.26;61.46;98179.50;5023671;28;20536;-75
2021/08/21 01:06:44;;;;;;;5.53;3.40;;;;;;;25.63;59.42;98185.88;5018836;28;20245;-76
2021/08/21 01:09:11;;;;;;;5.83;3.83;;;;;;;25.39;61.10;98178.81;5024368;28;20205;-75
2021/08/21 01:11:38;;;;;;;6.03;3.10;;;;;;;25.14;61.97;98181.81;5020828;28;20210;-75
2021/08/21 01:14:06;;;;;;;4.17;3.03;;;;;;;25.19;62.79;98173.56;5029906;28;20224;-75
2021/08/21 01:16:33;;;;;;;5.03;3.50;;;;;;;25.10;63.19;98178.84;5021445;28;20205;-75
2021/08/21 01:19:01;;;;;;;5.77;3.23;;;;;;;25.45;61.26;98178.47;5028554;28;20673;-76
2021/08/21 01:21:29;;;;;;;4.97;3.27;;;;;;;25.18;62.09;98174.66;5021472;28;20690;-76
2021/08/21 01:23:57;;;;;;;6.53;3.70;;;;;;;25.21;62.19;98177.63;5027393;28;20225;-76
2021/08/21 01:26:24;;;;;;;4.57;3.20;;;;;;;25.30;61.73;98180.56;5010328;28;20225;-76
2021/08/21 01:28:53;;;;;;;5.40;3.87;;;;;;;25.87;59.06;98174.91;5023196;28;20294;-76
2021/08/21 01:31:20;;;;;;;5.57;3.50;;;;;;;25.56;59.91;98185.44;5021895;28;20213;-76
2021/08/21 01:33:47;;;;;;;4.03;3.33;;;;;;;25.49;61.08;98182.22;5015658;28;20225;-76
2021/08/21 01:36:15;;;;;;;5.03;3.53;;;;;;;25.51;61.17;98173.75;5022539;28;20579;-76
2021/08/21 01:38:56;;;;;;;5.60;3.27;;;;;;;25.50;60.13;98180.31;5024492;28;20237;-76
2021/08/21 01:41:24;;;;;;;5.10;3.83;;;;;;;25.54;60.52;98173.16;5020410;28;20692;-76
2021/08/21 01:43:52;;;;;;;6.87;3.40;;;;;;;25.26;60.60;98176.78;5024288;28;20699;-76
2021/08/21 01:46:19;;;;;;;4.37;3.27;;;;;;;24.93;63.19;98177.66;5018759;28;20236;-76
2021/08/21 01:48:47;;;;;;;6.10;3.70;;;;;;;25.29;62.22;98176.22;5022398;28;20214;-76
2021/08/21 01:51:14;;;;;;;4.93;3.40;;;;;;;25.22;61.51;98175.69;5018571;28;20598;-75
2021/08/21 01:53:41;;;;;;;5.40;3.90;;;;;;;25.09;62.43;98174.47;5022616;28;20212;-75
2021/08/21 01:56:09;;;;;;;5.00;3.27;;;;;;;25.28;61.59;98177.31;5017680;28;20208;-76
2021/08/21 01:58:37;;;;;;;4.30;3.73;;;;;;;25.55;59.97;98177.53;5021678;28;20231;-75
2021/08/21 02:01:06;;;;;;;5.53;3.50;;;;;;;25.47;60.04;98178.97;5017333;28;20674;-76
2021/08/21 02:03:33;;;;;;;6.07;3.70;;;;;;;25.30;60.39;98175.91;5015246;28;20237;-75
2021/08/21 02:06:00;;;;;;;5.20;3.80;;;;;;;25.18;61.17;98180.13;5018068;28;20233;-74
2021/08/21 02:08:28;;;;;;;5.93;3.53;;;;;;;25.10;62.13;98167.91;5020656;28;20220;-73
2021/08/21 02:10:55;;;;;;;4.17;3.23;;;;;;;25.16;62.58;98168.66;5018778;28;20284;-73
2021/08/21 02:13:22;;;;;;;6.33;3.90;;;;;;;24.69;64.47;98169.44;5019355;28;20208;-73
2021/08/21 02:15:49;;;;;;;5.23;3.87;;;;;;;24.50;64.85;98163.03;5019546;28;20206;-73
2021/08/21 02:18:18;;;;;;;4.17;3.33;;;;;;;24.55;64.95;98164.88;5023107;28;20227;-73
2021/08/21 02:20:46;;;;;;;6.77;3.43;;;;;;;24.63;64.60;98170.56;5020667;28;20210;-76
2021/08/21 02:23:13;;;;;;;4.90;3.40;;;;;;;24.70;64.57;98167.50;5022245;28;20203;-76
2021/08/21 02:25:41;;;;;;;4.07;3.40;;;;;;;24.56;65.27;98163.78;5023106;28;20236;-75
2021/08/21 02:28:09;;;;;;;5.47;3.80;;;;;;;24.77;63.93;98157.88;5020219;28;20271;-76
2021/08/21 02:30:38;;;;;;;5.40;3.30;;;;;;;24.70;63.95;98165.59;5022665;28;20203;-76
2021/08/21 02:33:05;;;;;;;4.80;3.60;;;;;;;24.21;66.79;98158.59;5020241;28;20661;-76
2021/08/21 02:35:34;;;;;;;4.00;3.53;;;;;;;24.49;65.68;98157.84;5023625;28;20204;-76
2021/08/21 02:38:02;;;;;;;4.33;3.27;;;;;;;24.26;67.09;98153.09;5019438;28;20235;-75
2021/08/21 02:40:30;;;;;;;5.07;3.80;;;;;;;24.42;66.15;98163.63;5023043;28;20210;-75
2021/08/21 02:42:57;;;;;;;3.70;3.30;;;;;;;24.26;66.59;98156.66;5018762;28;20212;-76
2021/08/21 02:45:24;;;;;;;5.33;3.53;;;;;;;24.18;66.96;98154.53;5022612;28;20228;-75
2021/08/21 02:47:52;;;;;;;6.77;3.83;;;;;;;24.41;65.37;98155.72;5018663;28;20233;-75
2021/08/21 02:50:19;;;;;;;4.53;3.50;;;;;;;24.11;67.19;98150.53;5025202;28;20204;-75
2021/08/21 02:52:50;;;;;;;4.30;3.83;;;;;;;24.20;66.95;98146.06;5019663;28;20565;-75
2021/08/21 02:55:17;;;;;;;4.43;3.53;;;;;;;24.09;67.67;98142.63;5025228;28;20693;-76
2021/08/21 02:57:44;;;;;;;6.20;3.77;;;;;;;24.26;66.61;98144.91;5019806;28;20238;-75
2021/08/21 03:00:12;;;;;;;4.50;3.80;;;;;;;24.06;67.68;98147.84;5009238;28;20200;-76
2021/08/21 03:02:40;;;;;;;6.10;3.67;;;;;;;24.37;66.03;98150.00;5020300;28;20230;-75
2021/08/21 03:05:08;;;;;;;5.00;4.10;;;;;;;24.49;65.13;98147.75;5016487;28;20230;-76
2021/08/21 03:07:36;;;;;;;5.97;3.83;;;;;;;23.81;68.20;98147.97;5022442;28;20228;-75
2021/08/21 03:10:06;;;;;;;6.03;3.90;;;;;;;24.21;66.50;98145.78;5021765;28;20210;-75
2021/08/21 03:12:33;;;;;;;6.10;4.23;;;;;;;23.90;68.37;98149.00;5022446;28;20660;-73
2021/08/21 03:15:01;;;;;;;6.00;4.10;;;;;;;24.11;67.57;98150.53;5021072;28;20211;-75
2021/08/21 03:17:29;;;;;;;6.70;3.53;;;;;;;23.98;68.38;98148.41;5026931;28;20246;-75
2021/08/21 03:19:56;;;;;;;5.27;4.30;;;;;;;23.92;68.05;98155.00;5018984;28;20214;-75
2021/08/21 03:22:23;;;;;;;5.37;4.00;;;;;;;23.64;69.94;98148.31;5025998;28;20207;-75
2021/08/21 03:24:51;;;;;;;4.57;3.80;;;;;;;23.48;71.46;98149.50;5019613;28;20211;-74
2021/08/21 03:27:19;;;;;;;5.80;4.13;;;;;;;23.43;71.56;98143.25;5023415;28;20699;-74
2021/08/21 03:29:47;;;;;;;5.20;4.23;;;;;;;23.39;72.79;98143.00;5023630;28;20585;-74
2021/08/21 03:32:16;;;;;;;4.90;4.23;;;;;;;23.65;71.22;98147.22;5025816;28;20232;-75
2021/08/21 03:34:43;;;;;;;5.53;4.17;;;;;;;23.63;71.72;98146.69;5023284;28;20245;-75
2021/08/21 03:37:11;;;;;;;5.20;4.63;;;;;;;23.80;69.61;98146.31;5003275;28;20221;-75
2021/08/21 03:39:38;;;;;;;7.20;4.50;;;;;;;23.84;69.20;98145.47;5025661;28;20204;-75
2021/08/21 03:42:06;;;;;;;6.30;4.20;;;;;;;23.70;70.91;98141.75;5025508;28;20220;-75
2021/08/21 03:44:35;;;;;;;5.63;4.10;;;;;;;23.62;71.57;98147.78;5022972;28;20220;-75
2021/08/21 03:47:03;;;;;;;7.43;4.40;;;;;;;23.83;70.11;98146.59;5024191;28;20236;-75
2021/08/21 03:49:30;;;;;;;5.23;4.30;;;;;;;23.92;68.99;98152.28;5023581;28;20200;-75
2021/08/21 03:51:57;;;;;;;5.50;4.00;;;;;;;23.81;69.85;98154.22;5022016;28;20208;-75
2021/08/21 03:54:24;;;;;;;6.13;4.13;;;;;;;24.04;67.43;98145.38;5022309;28;20215;-75
2021/08/21 03:56:52;;;;;;;4.87;4.03;;;;;;;23.91;69.54;98139.75;5028094;28;20712;-75
2021/08/21 03:59:19;;;;;;;8.47;4.53;;;;;;;23.92;68.73;98142.16;5022091;28;20299;-75
2021/08/21 04:01:48;;;;;;;5.70;4.40;;;;;;;23.85;69.49;98147.09;5027350;28;20249;-75
2021/08/21 04:04:15;;;;;;;8.83;4.97;;;;;;;23.60;70.32;98149.97;5016361;28;20309;-75
2021/08/21 04:06:43;;;;;;;6.47;4.67;;;;;;;23.40;71.70;98138.38;5025819;28;20230;-75
2021/08/21 04:09:10;;;;;;;7.17;4.97;;;;;;;23.33;72.86;98140.56;5022548;28;20203;-75
2021/08/21 04:11:38;;;;;;;6.27;4.10;;;;;;;23.67;70.74;98147.75;5025091;28;20202;-75
2021/08/21 04:14:05;;;;;;;5.43;4.30;;;;;;;24.02;68.44;98152.22;5020576;28;20295;-75
2021/08/21 04:16:32;;;;;;;5.23;4.10;;;;;;;23.88;68.64;98154.72;5018803;28;20201;-75
2021/08/21 04:19:01;;;;;;;6.63;4.40;;;;;;;23.98;68.26;98154.69;5023102;28;20203;-75
2021/08/21 04:21:28;;;;;;;6.80;4.53;;;;;;;23.62;70.65;98155.94;5022825;28;20576;-75
2021/08/21 04:23:55;;;;;;;6.57;4.87;;;;;;;23.58;70.05;98151.34;5021885;28;20586;-75
2021/08/21 04:26:23;;;;;;;6.93;4.63;;;;;;;23.47;71.15;98153.28;5015765;28;20235;-75
2021/08/21 04:28:50;;;;;;;6.57;4.80;;;;;;;23.56;71.14;98156.28;5016282;28;20207;-74
2021/08/21 04:31:17;;;;;;;7.83;4.30;;;;;;;23.33;73.04;98155.00;5024869;28;20202;-75
2021/08/21 04:33:44;;;;;;;5.33;4.33;;;;;;;23.80;69.80;98155.31;5023716;28;20203;-75
2021/08/21 04:36:13;;;;;;;9.07;4.43;;;;;;;23.75;70.11;98162.69;5023510;28;20199;-75
2021/08/21 04:38:41;;;;;;;5.73;4.53;;;;;;;23.92;68.93;98160.47;5017401;28;20227;-75
2021/08/21 04:41:08;;;;;;;8.60;4.93;;;;;;;23.60;70.55;98163.59;5021703;28;20244;-75
2021/08/21 04:43:35;;;;;;;6.73;4.57;;;;;;;23.73;70.33;98164.91;5025432;28;20211;-75
2021/08/21 04:46:03;;;;;;;9.20;5.00;;;;;;;23.83;70.30;98162.13;5023100;28;20593;-75
2021/08/21 04:48:30;;;;;;;7.43;4.83;;;;;;;23.79;70.34;98164.59;5018241;28;20234;-76
2021/08/21 04:50:57;;;;;;;7.20;4.60;;;;;;;23.73;70.56;98164.91;5022923;28;20583;-76
2021/08/21 04:53:26;;;;;;;5.73;4.60;;;;;;;24.22;67.54;98160.25;5015898;28;20210;-75
2021/08/21 04:55:53;;;;;;;6.53;4.37;;;;;;;24.13;67.63;98170.13;5022705;28;20207;-75
2021/08/21 04:58:21;;;;;;;7.70;4.80;;;;;;;23.94;69.47;98171.88;5021525;28;20223;-76
2021/08/21 05:00:48;;;;;;;6.93;4.43;;;;;;;24.05;68.61;98174.28;5022011;28;20211;-75
2021/08/21 05:03:15;;;;;;;6.70;4.27;;;;;;;24.19;67.73;98177.16;5016028;28;20230;-75
2021/08/21 05:05:43;;;;;;;8.53;4.57;;;;;;;24.44;67.02;98171.53;5018930;28;20201;-76
2021/08/21 05:08:11;;;;;;;6.03;3.80;;;;;;;24.24;68.10;98171.69;5020140;28;20794;-76
2021/08/21 05:10:39;;;;;;;6.20;4.20;;;;;;;24.59;66.11;98176.88;5023408;28;20208;-76
2021/08/21 05:13:07;;;;;;;5.60;4.50;;;;;;;24.53;66.92;98172.53;5018614;28;20208;-76
2021/08/21 05:15:34;;;;;;;6.73;4.27;;;;;;;24.71;65.75;98178.13;5023610;28;20205;-76
2021/08/21 05:18:02;;;;;;;4.70;4.03;;;;;;;25.09;63.21;98179.13;5024967;28;20227;-76
2021/08/21 05:20:40;;;;;;;6.17;4.20;;;;;;;25.32;62.26;98183.81;5023698;28;20238;-76
2021/08/21 05:23:10;;;;;;;6.27;4.00;;;;;;;24.91;64.34;98175.22;5018506;28;20687;-76
2021/08/21 05:25:42;;;;;;;6.23;4.13;;;;;;;25.16;64.12;98174.13;5023865;28;20208;-76
2021/08/21 05:28:09;;;;;;;6.87;4.17;;;;;;;25.11;63.32;98177.72;5021210;28;20823;-76
2021/08/21 05:30:38;;;;;;;6.53;4.00;;;;;;;25.13;63.52;98172.78;5026511;28;20201;-75
2021/08/21 05:33:09;;;;;;;7.87;4.60;;;;;;;25.39;61.79;98178.81;5014610;28;20218;-76
2021/08/21 05:35:37;;;;;;;8.23;3.90;;;;;;;25.62;61.05;98172.50;5026195;28;20271;-76
2021/08/21 05:38:04;;;;;;;6.60;4.20;;;;;;;25.64;60.85;98181.25;5018724;28;20270;-75
2021/08/21 05:40:31;;;;;;;5.10;4.20;;;;;;;25.70;61.45;98180.84;5022499;28;20209;-76
2021/08/21 05:43:00;;;;;;;5.90;4.37;;;;;;;25.22;62.27;98178.41;5020897;28;20226;-75
2021/08/21 05:45:28;;;;;;;7.90;4.60;;;;;;;25.41;61.83;98187.53;5022760;28;20202;-76
2021/08/21 05:47:56;;;;;;;7.53;4.30;;;;;;;25.34;63.18;98178.88;5020633;28;20233;-76
2021/08/21 05:50:24;;;;;;;6.77;4.70;;;;;;;25.28;62.18;98185.50;5023034;28;20213;-76
2021/08/21 05:52:52;;;;;;;6.07;4.43;;;;;;;25.55;61.33;98188.44;5019497;28;20221;-76
2021/08/21 05:55:20;;;;;;;7.67;5.00;;;;;;;25.41;62.65;98182.88;5022857;28;20609;-76
2021/08/21 05:57:47;;;;;;;6.50;4.37;;;;;;;25.50;61.27;98180.31;5021264;28;20245;-79
2021/08/21 06:00:16;;;;;;;7.23;4.70;;;;;;;25.35;62.75;98194.16;5026706;28;20226;-77
2021/08/21 06:02:44;;;;;;;7.80;4.40;;;;;;;25.44;61.84;98187.75;5019412;28;20660;-76
2021/08/21 06:05:12;;;;;;;9.37;5.33;;;;;;;25.41;61.57;98196.56;5025537;28;20209;-75
2021/08/21 06:07:39;;;;;;;8.33;4.13;;;;;;;26.03;59.22;98201.78;5021798;28;20717;-74
2021/08/21 06:10:08;;;;;;;6.27;4.23;;;;;;;25.60;60.62;98197.41;5022620;28;20214;-74
2021/08/21 06:12:35;;;;;;;5.67;4.67;;;;;;;25.97;59.18;98194.75;5020996;28;20213;-74
2021/08/21 06:15:02;;;;;;;6.37;4.50;;;;;;;25.97;58.40;98200.22;5019275;28;20667;-75
2021/08/21 06:17:31;;;;;;;5.80;4.47;;;;;;;25.91;58.86;98195.94;5022965;28;20230;-75
2021/08/21 06:19:58;;;;;;;7.23;4.97;;;;;;;25.71;59.30;98207.13;5017696;28;20225;-75
2021/08/21 06:22:26;;;;;;;7.70;4.50;;;;;;;25.88;58.86;98201.13;5021841;28;20206;-75
2021/08/21 06:24:54;;;;;;;7.43;5.17;;;;;;;26.15;57.26;98204.88;5015431;28;20213;-75
2021/08/21 06:27:21;;;;;;;10.83;5.30;;;;;;;26.50;56.07;98217.22;5021835;28;20241;-73
2021/08/21 06:29:48;;;;;;;6.17;4.60;;;;;;;26.22;57.54;98208.06;5014535;28;20210;-73
2021/08/21 06:32:15;;;;;;;6.60;4.77;;;;;;;26.29;56.60;98213.19;5016196;28;20573;-75
2021/08/21 06:34:44;;;;;;;7.53;4.93;;;;;;;26.55;55.69;98209.75;5021688;28;20575;-75
2021/08/21 06:37:14;;;;;;;11.03;5.37;;;;;;;26.25;56.68;98212.94;5013526;28;20215;-76
2021/08/21 06:39:42;;;;;;;8.10;4.80;;;;;;;26.20;56.29;98206.75;5017740;28;20203;-76
2021/08/21 06:42:09;;;;;;;7.80;4.80;;;;;;;26.54;55.56;98216.31;5023829;28;20211;-74
2021/08/21 06:44:36;;;;;;;12.97;5.53;;;;;;;26.10;56.85;98206.88;5018302;28;20648;-72
2021/08/21 06:47:04;;;;;;;7.73;4.53;;;;;;;25.85;57.82;98208.00;5021290;28;20235;-75
2021/08/21 06:49:31;;;;;;;7.40;5.10;;;;;;;25.80;58.90;98210.00;5018401;28;20200;-74
2021/08/21 06:52:00;;;;;;;8.33;4.40;;;;;;;26.49;55.30;98215.56;5019589;28;20214;-73
2021/08/21 06:54:27;;;;;;;9.37;5.30;;;;;;;25.71;57.96;98204.38;5019515;28;20207;-72
2021/08/21 06:56:54;;;;;;;7.57;4.60;;;;;;;24.85;62.48;98206.41;5019959;28;20599;-74
2021/08/21 06:59:22;;;;;;;6.63;5.10;;;;;;;25.63;58.66;98207.75;5022027;28;20203;-74
2021/08/21 07:01:49;;;;;;;7.73;4.80;;;;;;;26.09;55.62;98206.06;5017247;28;20218;-74
2021/08/21 07:04:16;;;;;;;5.73;4.90;;;;;;;26.21;55.54;98209.19;5023091;28;20199;-75
2021/08/21 07:06:44;;;;;;;7.97;5.07;;;;;;;26.81;54.51;98207.44;5009115;28;20239;-78
2021/08/21 07:09:12;;;;;;;6.00;5.00;;;;;;;27.68;50.07;98214.56;5021920;28;20202;-73
2021/08/21 07:11:40;;;;;;;7.47;5.10;;;;;;;27.43;50.29;98220.53;5022459;28;20203;-79
2021/08/21 07:14:07;;;;;;;6.83;4.80;;;;;;;25.56;56.97;98215.50;5015349;28;20234;-75
2021/08/21 07:16:34;;;;;;;9.67;4.97;;;;;;;25.41;59.15;98206.66;5033337;28;20202;-76
2021/08/21 07:19:02;;;;;;;7.33;4.70;;;;;;;27.26;51.46;98214.84;5016567;28;20215;-72
2021/08/21 07:21:29;;;;;;;6.83;4.53;;;;;;;26.50;54.55;98211.75;5009338;28;20633;-72
2021/08/21 07:23:56;;;;;;;7.20;4.37;;;;;;;27.51;50.89;98217.09;5008715;28;20571;-72
2021/08/21 07:26:25;;;;;;;9.30;4.57;;;;;;;27.45;51.21;98216.38;5012386;28;20218;-72
2021/08/21 07:28:52;;;;;;;7.07;5.03;;;;;;;25.48;59.58;98194.28;5019647;28;20208;-72
2021/08/21 07:31:19;;;;;;;8.10;4.60;;;;;;;25.89;58.06;98191.84;5018744;28;20221;-76
2021/08/21 07:33:47;;;;;;;7.00;4.53;;;;;;;26.70;54.52;98198.56;5027943;28;20584;-75
2021/08/21 07:36:14;;;;;;;6.67;4.87;;;;;;;25.74;58.33;98198.31;5021025;28;20786;-73
2021/08/21 07:38:41;;;;;;;8.17;4.83;;;;;;;26.54;55.34;98199.91;5024896;28;20228;-74
2021/08/21 07:41:10;;;;;;;6.30;4.90;;;;;;;25.90;57.46;98194.25;5026402;28;20203;-74
2021/08/21 07:43:39;;;;;;;8.43;4.10;;;;;;;27.46;52.14;98201.56;5024426;28;20203;-72
2021/08/21 07:46:07;;;;;;;8.27;4.33;;;;;;;26.52;54.55;98199.38;5018701;28;20742;-73
2021/08/21 07:48:34;;;;;;;6.87;4.30;;;;;;;26.16;56.88;98197.50;5024621;28;20236;-76
2021/08/21 07:51:01;;;;;;;6.07;4.67;;;;;;;26.53;54.79;98200.19;5031947;28;20564;-78
2021/08/21 07:53:29;;;;;;;9.97;4.13;;;;;;;28.01;50.06;98200.41;5015116;28;20238;-70
2021/08/21 07:55:56;;;;;;;6.27;4.10;;;;;;;26.31;54.08;98210.94;5014374;28;20299;-74
2021/08/21 07:58:23;;;;;;;6.87;4.37;;;;;;;26.13;56.79;98198.06;5018279;28;20253;-73
2021/08/21 08:00:52;;;;;;;5.60;3.80;;;;;;;27.25;51.82;98211.28;5013903;28;20217;-72
2021/08/21 08:03:19;;;;;;;8.03;4.77;;;;;;;28.20;47.70;98214.81;5011704;28;20204;-74
2021/08/21 08:05:47;;;;;;;8.00;4.20;;;;;;;26.81;52.99;98205.47;5012331;28;20208;-72
2021/08/21 08:08:14;;;;;;;7.23;4.43;;;;;;;26.35;54.89;98210.03;5011393;28;20237;-75
2021/08/21 08:10:41;;;;;;;5.27;3.90;;;;;;;27.09;52.81;98209.09;5028529;28;20210;-74
2021/08/21 08:13:08;;;;;;;4.70;3.73;;;;;;;27.43;51.65;98215.06;5018523;28;20214;-77
2021/08/21 08:15:36;;;;;;;8.47;3.63;;;;;;;27.81;49.29;98216.50;5013949;28;20224;-77
2021/08/21 08:18:05;;;;;;;5.30;3.83;;;;;;;27.76;49.61;98213.84;5017367;28;20308;-75
2021/08/21 08:20:32;;;;;;;4.83;4.00;;;;;;;27.14;51.66;98214.47;5023368;28;20203;-76
2021/08/21 08:23:00;;;;;;;4.97;3.97;;;;;;;27.10;51.72;98217.03;5015172;28;20220;-80
2021/08/21 08:25:27;;;;;;;5.80;4.10;;;;;;;28.29;47.40;98220.38;5027297;28;20223;-77
2021/08/21 08:27:54;;;;;;;4.60;3.40;;;;;;;28.13;47.98;98213.59;5023633;28;20240;-74
2021/08/21 08:30:22;;;;;;;4.97;3.70;;;;;;;29.63;44.45;98226.31;5028324;28;20211;-73
2021/08/21 08:32:49;;;;;;;8.63;4.03;;;;;;;29.33;44.79;98216.13;5005646;28;20217;-75
2021/08/21 08:35:18;;;;;;;6.27;3.70;;;;;;;29.04;44.62;98226.81;5012799;28;20209;-75
2021/08/21 08:37:45;;;;;;;7.77;3.53;;;;;;;28.53;46.56;98223.69;5027679;28;20598;-77
2021/08/21 08:40:13;;;;;;;4.87;3.40;;;;;;;28.55;46.74;98225.00;5022484;28;20677;-74
2021/08/21 08:42:41;;;;;;;6.80;3.67;;;;;;;29.31;45.12;98218.38;5013937;28;20688;-72
2021/08/21 08:45:09;;;;;;;6.33;3.60;;;;;;;29.93;42.07;98225.44;5016599;28;20207;-75
2021/08/21 08:47:37;;;;;;;7.30;3.87;;;;;;;28.45;46.51;98213.44;5013401;28;20231;-73
2021/08/21 08:50:06;;;;;;;8.20;3.42;;;;;;;29.92;43.31;98218.31;5023203;28;20210;-74
2021/08/21 08:52:35;;;;;;;4.53;2.90;;;;;;;30.82;39.99;98227.31;5017698;28;20287;-78
2021/08/21 08:55:03;;;;;;;4.37;3.13;;;;;;;31.25;40.24;98232.78;5018423;28;20214;-74
2021/08/21 08:57:37;;;;;;;4.18;3.22;;;;;;;31.32;38.71;98236.66;5008793;28;20309;-74
2021/08/21 09:00:07;;;;;;;5.05;3.22;;;;;;;30.81;39.73;98227.69;5024132;28;20215;-72
2021/08/21 09:02:36;;;;;;;7.13;3.60;;;;;;;31.88;37.57;98233.53;5007251;28;20215;-71
2021/08/21 09:05:05;;;;;;;5.10;3.53;;;;;;;31.75;38.06;98229.06;5005796;28;20204;-71
2021/08/21 09:07:42;;;;;;;7.18;3.90;;;;;;;32.19;37.06;98227.66;5020472;28;20227;-69
2021/08/21 09:10:14;;;;;;;17.33;3.95;;;;;;;30.03;42.88;98214.13;5019307;28;20206;-71
2021/08/21 09:12:42;;;;;;;5.20;3.08;;;;;;;30.81;40.88;98224.91;5011238;28;20203;-77
2021/08/21 09:15:23;;;;;;;5.13;3.33;;;;;;;29.94;43.57;98213.31;5014522;28;20195;-71
2021/08/21 09:18:08;;;;;;;6.50;3.63;;;;;;;30.15;43.61;98217.09;5029767;28;20225;-82
2021/08/21 09:20:52;;;;;;;5.38;3.22;;;;;;;29.23;45.49;98208.19;5021446;28;20282;-76
2021/08/21 09:23:26;;;;;;;7.03;3.17;;;;;;;31.00;42.47;98211.56;5008006;28;20208;-82
2021/08/21 09:25:55;;;;;;;4.68;3.10;;;;;;;30.68;41.79;98212.09;5008406;28;20289;-74
2021/08/21 09:28:24;;;;;;;27.00;4.72;;;;;;;29.48;44.23;98204.69;5021039;28;20320;-74
2021/08/21 09:31:02;;;;;;;4.68;3.67;;;;;;;31.20;40.24;98214.47;5020904;28;20213;-73
2021/08/21 09:33:30;;;;;;;5.05;3.17;;;;;;;31.87;37.63;98222.84;5011644;28;20620;-75
2021/08/21 09:35:57;;;;;;;6.75;3.72;;;;;;;32.64;37.54;98220.34;5018951;28;20572;-72
2021/08/21 09:38:29;;;;;;;6.20;3.25;;;;;;;32.53;35.89;98222.72;5020556;28;20234;-73
2021/08/21 09:41:01;;;;;;;6.70;3.30;;;;;;;33.15;35.82;98212.38;5015227;28;20265;-73
2021/08/21 09:43:32;;;;;;;4.90;3.28;;;;;;;33.28;34.51;98227.03;5012051;28;20203;-72
2021/08/21 09:46:11;;;;;;;5.13;3.88;;;;;;;32.73;35.50;98223.88;5021887;28;20207;-73
2021/08/21 09:48:57;;;;;;;4.35;3.60;;;;;;;32.50;37.45;98211.53;5021019;28;20260;-71
2021/08/21 09:51:38;;;;;;;4.60;3.30;;;;;;;32.68;36.38;98211.03;5013757;28;20207;-70
2021/08/21 09:54:08;;;;;;;4.70;3.80;;;;;;;30.66;41.24;98206.91;5002506;28;20242;-74
2021/08/21 09:56:37;;;;;;;4.35;3.78;;;;;;;30.87;40.67;98198.78;5021304;28;20204;-69
2021/08/21 09:59:05;;;;;;;5.25;3.63;;;;;;;30.34;42.57;98188.09;5014137;28;20207;-70
2021/08/21 10:01:33;;;;;;;5.55;3.55;;;;;;;32.01;39.37;98196.59;5013919;28;20207;-69
2021/08/21 10:04:01;;;;;;;4.90;4.00;;;;;;;30.71;41.55;98186.66;5009780;28;20215;-69
2021/08/21 10:06:29;;;;;;;4.75;3.38;;;;;;;32.20;37.29;98198.88;5010959;28;20204;-72
2021/08/21 10:09:00;;;;;;;5.78;3.70;;;;;;;30.91;40.94;98185.97;5020642;28;20230;-71
2021/08/21 10:11:30;;;;;;;4.38;3.80;;;;;;;32.58;37.59;98188.53;5016709;28;20204;-73
2021/08/21 10:13:58;;;;;;;5.22;3.80;;;;;;;33.07;35.54;98198.63;5025516;28;20217;-75
2021/08/21 10:16:26;;;;;;;6.28;4.00;;;;;;;33.31;35.92;98199.56;5021562;28;20207;-71
2021/08/21 10:18:55;;;;;;;7.00;4.03;;;;;;;33.55;35.80;98196.78;5026708;28;20215;-72
2021/08/21 10:21:23;;;;;;;4.55;3.90;;;;;;;33.34;36.27;98186.97;5021156;28;20208;-76
2021/08/21 10:23:51;;;;;;;6.85;3.92;;;;;;;32.01;38.57;98176.44;5011455;28;20611;-75
2021/08/21 10:26:24;;;;;;;5.22;3.65;;;;;;;33.20;36.11;98187.25;5010781;28;20211;-73
2021/08/21 10:28:53;;;;;;;4.72;3.78;;;;;;;32.08;38.50;98183.03;5011542;28;20243;-72
2021/08/21 10:31:41;;;;;;;6.10;3.70;;;;;;;31.80;39.09;98170.91;5017297;28;20261;-75
2021/08/21 10:34:10;;;;;;;4.97;3.67;;;;;;;33.67;37.89;98176.59;5011469;28;20212;-74
2021/08/21 10:36:47;;;;;;;6.38;4.40;;;;;;;34.02;34.71;98194.38;5018864;28;20202;-76
2021/08/21 10:39:18;;;;;;;5.15;4.20;;;;;;;34.11;35.10;98181.22;5011794;28;20213;-80
2021/08/21 10:41:45;;;;;;;5.00;4.10;;;;;;;31.61;38.74;98188.97;5009308;28;20203;-80
2021/08/21 10:44:43;;;;;;;5.88;4.22;;;;;;;31.89;39.45;98168.09;5020140;28;20667;-80
2021/08/21 10:47:38;;;;;;;4.90;3.78;;;;;;;33.69;36.07;98180.66;5022055;28;20234;-78
2021/08/21 10:50:34;;;;;;;6.45;4.78;;;;;;;34.44;33.85;98187.38;5031795;28;20205;-77
2021/08/21 10:53:04;;;;;;;5.63;4.10;;;;;;;31.81;38.26;98177.22;5018992;28;20210;-77
2021/08/21 10:55:42;;;;;;;5.13;4.30;;;;;;;32.35;37.85;98167.94;5008180;28;20213;-76
2021/08/21 10:58:15;;;;;;;5.30;3.75;;;;;;;32.83;36.17;98170.94;5019118;28;20703;-77
2021/08/21 11:00:55;;;;;;;6.95;4.03;;;;;;;33.85;34.50;98169.72;5021044;28;20664;-78
2021/08/21 11:03:43;;;;;;;4.25;3.75;;;;;;;34.48;33.16;98177.22;5017331;28;20283;-77
2021/08/21 11:06:11;;;;;;;5.07;4.32;;;;;;;33.46;35.43;98170.38;5015270;28;20207;-77
2021/08/21 11:08:56;;;;;;;4.20;3.60;;;;;;;33.86;35.40;98163.81;5015341;28;20683;-79
2021/08/21 11:11:30;;;;;;;6.00;4.10;;;;;;;34.85;33.14;98175.91;5018203;28;20653;-80
2021/08/21 11:14:00;;;;;;;6.60;4.22;;;;;;;32.56;36.83;98164.00;5019261;28;20212;-80
2021/08/21 11:16:48;;;;;;;5.88;4.28;;;;;;;33.54;34.49;98167.50;5016586;28;20264;-73
2021/08/21 11:19:33;;;;;;;5.28;4.13;;;;;;;32.54;35.76;98168.25;5013110;28;20215;-71
2021/08/21 11:22:16;;;;;;;7.25;4.32;;;;;;;34.62;32.65;98174.84;5017522;28;20209;-77
2021/08/21 11:24:59;;;;;;;4.88;4.07;;;;;;;34.83;31.94;98164.38;5017855;28;20274;-72
2021/08/21 11:27:44;;;;;;;4.55;3.80;;;;;;;35.89;30.19;98179.06;5011702;28;20281;-76
2021/08/21 11:30:22;;;;;;;5.07;4.05;;;;;;;33.58;33.79;98162.88;5026689;28;20206;-77
2021/08/21 11:32:54;;;;;;;4.93;4.05;;;;;;;33.19;34.62;98148.88;5020505;28;20207;-81
2021/08/21 11:35:24;;;;;;;5.65;3.70;;;;;;;35.40;30.73;98161.97;5021568;28;20200;-76
2021/08/21 11:37:52;;;;;;;4.03;3.60;;;;;;;35.94;30.27;98162.94;5015038;28;20657;-76
2021/08/21 11:40:21;;;;;;;6.43;4.18;;;;;;;33.99;33.27;98164.59;5025934;28;20206;-77
2021/08/21 11:42:52;;;;;;;5.70;3.92;;;;;;;32.47;35.97;98148.63;5007869;28;20204;-76
2021/08/21 11:45:20;;;;;;;4.95;4.07;;;;;;;34.33;33.15;98151.06;5014262;28;20210;-76
2021/08/21 11:47:47;;;;;;;10.35;4.50;;;;;;;33.87;32.41;98159.91;5016332;28;20231;-76